SLCB/CBB METAR and TAF weather

Enter ICAO airport designator
Station Type Date Time Source
SLCB METAR 2020/10/29 17:00 UTC NOAA

SLCB 291700Z 22007KT 9999 SCT036 SCT200 27/06 Q1019


Station Type Date Time Source
SLCB Decoded METAR 2020/10/29 17:00 UTC NOAA

Cochabamba, Bolivia (SLCB) 17-25S 066-11W 2570M
Oct 29, 2020 - 01:00 PM EDT / 2020.10.29 1700 UTC
Wind: from the SW (220 degrees) at 8 MPH (7 KT):0
Visibility: greater than 7 mile(s):0
Sky conditions: partly cloudy
Temperature: 80 F (27 C)
Dew Point: 42 F (6 C)
Relative Humidity: 26%
Pressure (altimeter): 30.09 in. Hg (1019 hPa)
ob: SLCB 291700Z 22007KT 9999 SCT036 SCT200 27/06 Q1019
cycle: 17

Station Type Date Time Source
SLCB TAF 2020/10/29 18:50 UTC NOAA

TAF SLCB 291650Z 2918/3018 28012KT 9999 FEW036 FEW040CB TX29/2919Z TN10/3010Z
BECMG 2915/2917 12010KT
BECMG 3002/3004 00000KT

Example: see airport list